Time;durP1;ratioP1;P1;durP2;ratioP2;P2;SDS_P1;SDS_P2;PMS_P1;PMS_P2;Temp;Humidity;BMP_temperature;BMP_pressure;BME280_temperature;BME280_humidity;BME280_pressure;Samples;Min_cycle;Max_cycle;Signal;HPM_P1;HPM_P2
2021/05/13 07:11:21;;;;;;;3.00;1.40;;;14.80;99.90;;;;;;4989166;23;20230;-72
2021/05/13 07:13:47;;;;;;;6.00;1.37;;;15.10;99.90;;;;;;4974045;28;20258;-70
2021/05/13 07:16:13;;;;;;;4.37;1.73;;;15.20;99.90;;;;;;4967631;28;20238;-77
2021/05/13 07:18:40;;;;;;;4.67;1.10;;;15.90;99.90;;;;;;4954848;28;20218;-75
2021/05/13 07:21:06;;;;;;;2.47;1.17;;;16.30;99.90;;;;;;4961506;28;20254;-74
2021/05/13 07:23:32;;;;;;;1.77;0.90;;;16.20;99.90;;;;;;4971620;28;20266;-72
2021/05/13 07:25:59;;;;;;;2.53;1.33;;;16.50;99.90;;;;;;4973029;28;20347;-72
2021/05/13 07:28:27;;;;;;;2.90;1.10;;;16.70;99.90;;;;;;4976427;28;20633;-72
2021/05/13 07:30:53;;;;;;;2.90;1.20;;;16.80;99.90;;;;;;4978004;28;20222;-73
2021/05/13 07:33:19;;;;;;;2.30;0.93;;;16.50;99.90;;;;;;4977624;28;20218;-72
2021/05/13 07:35:45;;;;;;;1.17;1.00;;;16.30;99.90;;;;;;4977833;28;20325;-72
2021/05/13 07:38:12;;;;;;;1.50;0.70;;;16.20;99.90;;;;;;4977716;28;20227;-71
2021/05/13 07:40:39;;;;;;;2.27;0.87;;;16.20;99.90;;;;;;4977854;28;20211;-73
2021/05/13 07:43:05;;;;;;;3.13;1.07;;;16.10;99.90;;;;;;4977483;28;20689;-72
2021/05/13 07:45:34;;;;;;;3.77;0.90;;;16.40;99.90;;;;;;4977638;28;20203;-74
2021/05/13 07:48:00;;;;;;;2.50;0.90;;;16.40;99.90;;;;;;4977225;28;20242;-72
2021/05/13 07:50:27;;;;;;;3.80;0.93;;;16.70;99.90;;;;;;4977593;28;20204;-72
2021/05/13 07:52:53;;;;;;;1.77;0.80;;;16.90;99.90;;;;;;4977420;28;20239;-72
2021/05/13 07:55:20;;;;;;;2.70;0.70;;;16.90;99.90;;;;;;4977247;28;20315;-73
2021/05/13 07:57:47;;;;;;;2.20;0.90;;;17.40;99.90;;;;;;4977480;28;20238;-72
2021/05/13 08:00:14;;;;;;;2.80;0.83;;;17.60;99.90;;;;;;4977381;28;20203;-76
2021/05/13 08:02:41;;;;;;;2.03;0.60;;;17.50;99.60;;;;;;4977472;28;20211;-72
2021/05/13 08:05:09;;;;;;;4.23;0.90;;;17.60;99.90;;;;;;4977271;28;20281;-71
2021/05/13 08:07:36;;;;;;;2.90;0.80;;;17.20;99.90;;;;;;4977326;28;20282;-72
2021/05/13 08:10:02;;;;;;;2.40;0.90;;;17.40;99.90;;;;;;4977140;28;20215;-72
2021/05/13 08:12:29;;;;;;;1.40;0.90;;;17.50;99.90;;;;;;4977039;28;20207;-71
2021/05/13 08:14:55;;;;;;;1.57;0.70;;;17.30;99.90;;;;;;4977079;28;20250;-72
2021/05/13 08:17:21;;;;;;;1.20;0.73;;;17.30;99.90;;;;;;4977015;28;20227;-72
2021/05/13 08:19:48;;;;;;;2.90;1.00;;;17.40;99.90;;;;;;4977023;28;20215;-72
2021/05/13 08:22:15;;;;;;;1.93;0.67;;;17.20;99.90;;;;;;4976782;28;20206;-73
2021/05/13 08:24:41;;;;;;;1.90;0.77;;;17.20;99.90;;;;;;4976669;28;20221;-74
2021/05/13 08:27:07;;;;;;;1.67;0.60;;;16.80;99.90;;;;;;4976772;28;20243;-75
2021/05/13 08:29:34;;;;;;;2.03;0.70;;;16.60;99.90;;;;;;4976967;28;20207;-74
2021/05/13 08:32:00;;;;;;;2.30;0.90;;;16.50;99.90;;;;;;4976672;28;20305;-74
2021/05/13 08:34:26;;;;;;;2.03;0.60;;;16.50;99.90;;;;;;4976535;28;20238;-75
2021/05/13 08:36:54;;;;;;;4.97;0.70;;;16.80;99.90;;;;;;4976153;28;20231;-73
2021/05/13 08:39:20;;;;;;;1.77;1.20;;;16.70;99.90;;;;;;4975399;28;20688;-74
2021/05/13 08:41:47;;;;;;;2.13;0.60;;;16.50;99.90;;;;;;4976606;28;20215;-74
2021/05/13 08:44:13;;;;;;;4.47;1.07;;;16.60;99.90;;;;;;4976839;28;20203;-74
2021/05/13 08:46:40;;;;;;;3.47;1.30;;;16.90;99.90;;;;;;4976316;28;20227;-74
2021/05/13 08:49:07;;;;;;;1.33;0.60;;;17.10;99.90;;;;;;4976323;28;20270;-74
2021/05/13 08:51:34;;;;;;;2.83;0.87;;;17.50;99.90;;;;;;4976262;28;20211;-73
2021/05/13 08:54:01;;;;;;;1.90;0.60;;;18.00;99.80;;;;;;4976486;28;20218;-74
2021/05/13 08:56:29;;;;;;;3.57;0.60;;;18.10;99.70;;;;;;4976305;28;20571;-72
2021/05/13 08:59:02;;;;;;;1.33;0.63;;;17.80;99.30;;;;;;4976448;28;20211;-75
2021/05/13 09:01:29;;;;;;;2.27;0.77;;;18.00;99.90;;;;;;4976153;28;20207;-72
2021/05/13 09:03:55;;;;;;;3.03;1.00;;;18.40;99.90;;;;;;4976334;28;20222;-73
2021/05/13 09:06:28;;;;;;;0.83;0.63;;;18.40;99.70;;;;;;4975929;28;20211;-74
2021/05/13 09:08:55;;;;;;;1.60;0.50;;;18.50;99.30;;;;;;4976052;28;20243;-74
2021/05/13 09:11:22;;;;;;;2.37;0.53;;;18.40;99.70;;;;;;4975951;28;20215;-75
2021/05/13 09:13:59;;;;;;;1.77;0.77;;;18.80;99.30;;;;;;4976292;28;20211;-74
2021/05/13 09:16:27;;;;;;;2.07;0.87;;;18.70;98.80;;;;;;4975837;28;20285;-73
2021/05/13 09:18:54;;;;;;;2.20;0.90;;;19.00;99.10;;;;;;4976014;28;20613;-73
2021/05/13 09:21:20;;;;;;;2.20;0.70;;;19.00;98.30;;;;;;4975936;28;20207;-73
2021/05/13 09:23:47;;;;;;;2.25;0.55;;;19.30;97.10;;;;;;4975676;28;20209;-74
2021/05/13 09:26:17;;;;;;;1.45;0.77;;;19.80;97.30;;;;;;4975545;28;20692;-73
2021/05/13 09:28:45;;;;;;;1.45;0.60;;;19.40;96.70;;;;;;4975856;28;20203;-73
2021/05/13 09:31:36;;;;;;;2.47;0.80;;;19.00;98.00;;;;;;4975755;28;20266;-73
2021/05/13 09:34:05;;;;;;;3.42;1.00;;;18.90;97.80;;;;;;4975829;28;20211;-72
2021/05/13 09:36:32;;;;;;;3.50;0.90;;;19.10;97.90;;;;;;4975283;28;20254;-73
2021/05/13 09:38:58;;;;;;;2.05;1.00;;;19.30;98.10;;;;;;4975484;28;20214;-73
2021/05/13 09:41:29;;;;;;;2.93;1.07;;;19.20;97.80;;;;;;4975442;28;20215;-73
2021/05/13 09:43:56;;;;;;;3.92;1.25;;;19.10;97.90;;;;;;4975641;28;20211;-73
2021/05/13 09:46:33;;;;;;;3.43;1.10;;;19.20;98.20;;;;;;4975340;28;20249;-72
2021/05/13 09:48:59;;;;;;;3.77;0.90;;;19.40;98.50;;;;;;4975469;28;20207;-74
2021/05/13 09:51:27;;;;;;;2.20;0.87;;;19.60;97.20;;;;;;4974470;28;20597;-74
2021/05/13 09:54:08;;;;;;;4.40;1.30;;;19.20;98.00;;;;;;4974942;28;20207;-74
2021/05/13 09:56:37;;;;;;;2.42;0.95;;;19.00;97.40;;;;;;4975176;28;20246;-72
2021/05/13 09:59:22;;;;;;;2.75;0.98;;;19.10;97.80;;;;;;4975972;28;20285;-73
2021/05/13 10:01:49;;;;;;;3.22;0.98;;;19.30;98.60;;;;;;4975071;28;20214;-73
2021/05/13 10:04:16;;;;;;;3.35;0.90;;;19.70;97.50;;;;;;4974773;28;20696;-72
2021/05/13 10:06:42;;;;;;;3.22;0.95;;;19.70;97.80;;;;;;4974599;28;20567;-72
2021/05/13 10:09:09;;;;;;;2.17;0.77;;;19.80;97.30;;;;;;4975006;28;20203;-73
2021/05/13 10:11:35;;;;;;;3.08;1.00;;;20.20;96.90;;;;;;4974775;28;20211;-72
2021/05/13 10:14:02;;;;;;;3.30;0.68;;;20.30;96.60;;;;;;4974884;28;20566;-70
2021/05/13 10:16:30;;;;;;;1.80;0.80;;;19.60;97.00;;;;;;4974941;28;20231;-73
2021/05/13 10:19:01;;;;;;;3.22;0.90;;;19.50;96.90;;;;;;4975169;28;20242;-72
2021/05/13 10:21:30;;;;;;;3.88;1.00;;;20.20;97.20;;;;;;4975115;28;20215;-74
2021/05/13 10:23:58;;;;;;;2.72;0.80;;;20.40;96.80;;;;;;4974920;28;20676;-74
2021/05/13 10:26:44;;;;;;;2.33;0.80;;;20.70;96.30;;;;;;4974647;28;20207;-74
2021/05/13 10:29:36;;;;;;;3.92;0.60;;;20.90;95.90;;;;;;4974917;28;20207;-74
2021/05/13 10:32:11;;;;;;;3.38;0.80;;;20.70;94.20;;;;;;4974992;28;20298;-73
2021/05/13 10:34:47;;;;;;;11.13;0.80;;;19.70;95.30;;;;;;4975100;28;20269;-74
2021/05/13 10:37:17;;;;;;;2.15;0.70;;;19.00;96.30;;;;;;4974534;28;20241;-73
2021/05/13 10:40:24;;;;;;;0.95;0.50;;;19.10;97.70;;;;;;4974472;28;20274;-73
2021/05/13 10:43:01;;;;;;;1.40;0.40;;;19.30;96.90;;;;;;4974638;28;20215;-74
2021/05/13 10:45:39;;;;;;;1.48;0.63;;;19.20;96.30;;;;;;4974526;28;20207;-73
2021/05/13 10:48:19;;;;;;;1.70;0.53;;;19.20;97.00;;;;;;4974125;28;20706;-74
2021/05/13 10:50:54;;;;;;;2.00;0.77;;;19.30;98.20;;;;;;4974358;28;20638;-74
2021/05/13 10:53:41;;;;;;;2.72;0.70;;;19.40;98.50;;;;;;4974256;28;20616;-73
2021/05/13 10:56:23;;;;;;;3.63;0.52;;;19.30;98.40;;;;;;4974174;28;20235;-74
2021/05/13 10:59:12;;;;;;;1.40;0.65;;;19.40;97.40;;;;;;4974527;28;20606;-74
2021/05/13 11:01:45;;;;;;;1.63;0.50;;;19.40;96.50;;;;;;4973900;28;20535;-73
2021/05/13 11:04:40;;;;;;;0.80;0.50;;;19.30;96.10;;;;;;4974266;28;20261;-73
2021/05/13 11:07:26;;;;;;;1.65;0.70;;;19.50;96.70;;;;;;4974444;28;20231;-73
2021/05/13 11:10:00;;;;;;;2.22;0.60;;;19.70;96.00;;;;;;4974119;28;20218;-73
2021/05/13 11:12:27;;;;;;;6.43;0.90;;;19.70;96.30;;;;;;4974072;28;20217;-73
2021/05/13 11:15:17;;;;;;;1.13;0.77;;;19.70;95.80;;;;;;4973806;28;20705;-74
2021/05/13 11:18:14;;;;;;;1.83;0.73;;;20.20;96.20;;;;;;4973959;28;20698;-74
2021/05/13 11:20:55;;;;;;;2.38;0.60;;;20.50;94.60;;;;;;4973954;28;20693;-71
2021/05/13 11:23:24;;;;;;;1.95;0.70;;;20.80;95.00;;;;;;4974018;28;20211;-73
2021/05/13 11:25:52;;;;;;;1.67;0.55;;;21.20;94.70;;;;;;4973854;28;20270;-74
2021/05/13 11:28:20;;;;;;;2.53;0.80;;;21.40;94.50;;;;;;4973865;28;20227;-74
2021/05/13 11:30:47;;;;;;;4.35;0.90;;;21.70;94.90;;;;;;4973742;28;20262;-74
2021/05/13 11:33:13;;;;;;;1.98;0.85;;;21.80;93.10;;;;;;4974194;28;20211;-70
2021/05/13 11:35:40;;;;;;;2.30;0.80;;;21.30;93.30;;;;;;4973808;28;20238;-71
2021/05/13 11:38:19;;;;;;;3.38;1.10;;;21.30;93.50;;;;;;4973870;28;20227;-74
2021/05/13 11:40:46;;;;;;;1.70;0.70;;;21.30;93.50;;;;;;4973850;28;20215;-74
2021/05/13 11:43:24;;;;;;;3.35;0.93;;;20.90;94.80;;;;;;4973936;28;20208;-73
2021/05/13 11:45:52;;;;;;;1.13;0.90;;;21.00;95.10;;;;;;4973720;28;20273;-70
2021/05/13 11:48:24;;;;;;;2.80;0.80;;;21.00;94.00;;;;;;4965645;28;20242;-68
2021/05/13 11:50:51;;;;;;;3.17;0.70;;;21.20;94.40;;;;;;4972654;28;20258;-72
2021/05/13 11:53:19;;;;;;;1.55;0.75;;;21.10;94.80;;;;;;4972988;28;20215;-70
2021/05/13 11:55:47;;;;;;;1.55;0.70;;;20.90;94.80;;;;;;4972506;28;20314;-71
2021/05/13 11:58:15;;;;;;;1.20;0.80;;;20.60;95.40;;;;;;4946968;28;20235;-69
2021/05/13 12:00:42;;;;;;;3.67;1.23;;;20.30;96.00;;;;;;4934580;29;20224;-70
2021/05/13 12:03:12;;;;;;;2.65;1.10;;;19.30;98.70;;;;;;4934281;29;20217;-69
2021/05/13 12:05:49;;;;;;;4.40;1.00;;;18.00;99.90;;;;;;4934427;29;20213;-69
2021/05/13 12:08:17;;;;;;;2.73;1.53;;;17.30;99.90;;;;;;4946717;28;20227;-69
2021/05/13 12:10:45;;;;;;;2.97;1.57;;;16.40;99.90;;;;;;4953736;28;20219;-70
2021/05/13 12:13:11;;;;;;;1.83;1.40;;;15.90;99.90;;;;;;4955372;28;20275;-68
2021/05/13 12:15:38;;;;;;;3.17;1.70;;;15.40;99.90;;;;;;4948124;28;20236;-68
2021/05/13 12:18:05;;;;;;;5.40;1.80;;;14.90;99.90;;;;;;4936850;28;20233;-68
2021/05/13 12:20:33;;;;;;;5.63;2.30;;;14.60;99.90;;;;;;4937117;29;20220;-69
2021/05/13 12:23:01;;;;;;;5.33;2.03;;;14.40;99.90;;;;;;4974173;28;20208;-70
2021/05/13 12:25:27;;;;;;;4.20;2.30;;;14.40;99.90;;;;;;4959183;28;20743;-70
2021/05/13 12:27:56;;;;;;;4.93;2.33;;;14.50;99.90;;;;;;4946649;28;20232;-68
2021/05/13 12:30:23;;;;;;;3.37;1.70;;;14.40;99.90;;;;;;4956272;28;20215;-71
2021/05/13 12:32:49;;;;;;;3.10;1.90;;;14.20;99.90;;;;;;4956115;28;20211;-69
2021/05/13 12:35:28;;;;;;;3.63;1.80;;;14.30;99.90;;;;;;4962257;28;20247;-69
2021/05/13 12:38:12;;;;;;;3.17;1.53;;;14.30;99.90;;;;;;4937863;29;20251;-72
2021/05/13 12:40:38;;;;;;;2.37;1.27;;;14.30;99.90;;;;;;4938411;29;20217;-70
2021/05/13 12:43:16;;;;;;;1.33;1.23;;;14.40;99.90;;;;;;4938226;29;20664;-69
2021/05/13 12:45:45;;;;;;;1.97;1.30;;;14.60;99.90;;;;;;4937723;28;20217;-69
2021/05/13 12:48:11;;;;;;;3.53;1.20;;;14.50;99.90;;;;;;4937603;29;20840;-69
2021/05/13 12:50:38;;;;;;;4.73;1.50;;;14.40;99.90;;;;;;4937879;29;20208;-67
2021/05/13 12:53:12;;;;;;;2.73;1.40;;;14.40;99.90;;;;;;4937680;29;20224;-68
2021/05/13 12:55:40;;;;;;;1.83;1.27;;;14.30;99.90;;;;;;4937145;28;20253;-75
2021/05/13 12:58:10;;;;;;;2.30;1.10;;;14.30;99.90;;;;;;4937261;29;20228;-70
2021/05/13 13:00:38;;;;;;;0.97;0.77;;;14.40;99.90;;;;;;4937351;29;20296;-73
2021/05/13 13:03:06;;;;;;;1.73;1.10;;;14.40;99.90;;;;;;4937535;29;20239;-70
2021/05/13 13:05:32;;;;;;;1.83;1.00;;;14.60;99.90;;;;;;4937283;28;20217;-69
2021/05/13 13:07:58;;;;;;;3.10;1.23;;;14.90;99.90;;;;;;4937922;29;20726;-71
2021/05/13 13:10:32;;;;;;;2.07;1.20;;;15.10;99.90;;;;;;4953920;28;20234;-76
2021/05/13 13:13:12;;;;;;;1.73;1.07;;;15.40;99.90;;;;;;4957044;28;20296;-68
2021/05/13 13:15:44;;;;;;;1.43;1.20;;;15.40;99.90;;;;;;4936975;28;20240;-76
2021/05/13 13:18:12;;;;;;;1.77;0.80;;;15.70;99.90;;;;;;4936707;29;20225;-78
2021/05/13 13:20:39;;;;;;;1.93;1.23;;;16.00;99.90;;;;;;4937101;29;20263;-70
2021/05/13 13:23:24;;;;;;;3.57;0.77;;;16.20;99.90;;;;;;4936835;29;20208;-71
2021/05/13 13:25:51;;;;;;;1.20;0.80;;;16.30;99.90;;;;;;4935664;29;20267;-71
2021/05/13 13:28:18;;;;;;;1.20;1.00;;;16.40;99.90;;;;;;4936673;29;20797;-71
2021/05/13 13:30:49;;;;;;;1.30;0.80;;;16.50;99.90;;;;;;4937090;29;20209;-71
2021/05/13 13:33:17;;;;;;;1.10;0.80;;;16.60;99.90;;;;;;4937300;29;20624;-71
2021/05/13 13:35:44;;;;;;;0.90;0.63;;;16.20;99.90;;;;;;4937055;29;20236;-71
2021/05/13 13:38:12;;;;;;;1.10;0.80;;;15.90;99.90;;;;;;4937133;29;20225;-71
2021/05/13 13:40:39;;;;;;;1.57;0.83;;;15.70;99.90;;;;;;4936895;29;20209;-70
2021/05/13 13:43:06;;;;;;;0.70;0.70;;;15.70;99.90;;;;;;4936856;29;20205;-70
2021/05/13 13:45:32;;;;;;;1.20;1.10;;;15.60;99.90;;;;;;4936810;29;20534;-70
2021/05/13 13:48:07;;;;;;;1.57;1.20;;;15.60;99.90;;;;;;4936922;29;20237;-70
2021/05/13 13:50:35;;;;;;;1.20;1.00;;;15.70;99.90;;;;;;4936997;29;20340;-70
2021/05/13 13:53:01;;;;;;;1.27;1.00;;;16.10;99.90;;;;;;4936639;29;20205;-71
2021/05/13 13:55:28;;;;;;;1.77;1.23;;;16.20;99.90;;;;;;4936400;29;20240;-70
2021/05/13 13:57:54;;;;;;;1.50;1.20;;;16.40;99.90;;;;;;4935813;29;20239;-70
2021/05/13 14:00:21;;;;;;;1.67;1.10;;;16.70;99.90;;;;;;4936495;29;20213;-70
2021/05/13 14:02:50;;;;;;;1.00;0.90;;;16.70;99.90;;;;;;4936503;29;20224;-70
2021/05/13 14:05:18;;;;;;;1.33;1.03;;;16.70;99.90;;;;;;4936287;29;20213;-71
2021/05/13 14:07:44;;;;;;;0.90;0.80;;;16.60;99.90;;;;;;4935964;29;20699;-71
2021/05/13 14:10:11;;;;;;;0.70;0.67;;;16.50;99.90;;;;;;4936061;29;20213;-71
2021/05/13 14:12:38;;;;;;;0.60;0.60;;;16.40;99.90;;;;;;4935975;29;20225;-71
2021/05/13 14:15:05;;;;;;;0.90;0.70;;;16.30;99.90;;;;;;4936053;29;20224;-70
2021/05/13 14:17:32;;;;;;;4.67;1.93;;;16.40;99.90;;;;;;4936539;29;20225;-71
2021/05/13 14:19:58;;;;;;;2.63;1.40;;;16.70;99.90;;;;;;4936228;29;20212;-70
2021/05/13 14:22:25;;;;;;;1.87;1.27;;;17.00;99.90;;;;;;4936207;29;20212;-71
2021/05/13 14:24:51;;;;;;;1.47;1.00;;;17.10;99.90;;;;;;4936168;29;20260;-71
2021/05/13 14:27:18;;;;;;;2.47;1.30;;;17.20;99.90;;;;;;4936180;29;20242;-70
2021/05/13 14:29:44;;;;;;;0.83;0.80;;;17.60;99.90;;;;;;4936384;29;20209;-71
2021/05/13 14:32:10;;;;;;;2.20;1.40;;;17.70;99.90;;;;;;4936245;29;20209;-71
2021/05/13 14:34:37;;;;;;;0.97;0.77;;;18.10;99.90;;;;;;4936252;29;20560;-71
2021/05/13 14:37:03;;;;;;;1.57;0.50;;;18.30;99.90;;;;;;4935297;29;20232;-71
2021/05/13 14:39:30;;;;;;;0.70;0.67;;;18.30;99.90;;;;;;4935954;29;20319;-71
2021/05/13 14:41:58;;;;;;;0.77;0.53;;;18.20;99.90;;;;;;4936042;29;20217;-71
2021/05/13 14:44:25;;;;;;;1.90;0.73;;;18.40;99.90;;;;;;4936250;29;20209;-70
2021/05/13 14:46:51;;;;;;;0.60;0.60;;;18.50;99.90;;;;;;4935850;29;20239;-71
2021/05/13 14:49:23;;;;;;;0.70;0.60;;;18.00;99.90;;;;;;4935912;29;20217;-71
2021/05/13 14:51:51;;;;;;;0.97;0.67;;;17.80;99.90;;;;;;4935795;29;20378;-72
2021/05/13 14:54:17;;;;;;;1.10;0.70;;;17.90;99.90;;;;;;4935948;29;20213;-71
2021/05/13 14:56:49;;;;;;;1.17;0.60;;;17.70;99.90;;;;;;4935443;29;20241;-70
2021/05/13 14:59:16;;;;;;;0.93;0.80;;;17.70;99.90;;;;;;4935506;29;20209;-71
2021/05/13 15:01:43;;;;;;;1.20;0.83;;;17.90;99.90;;;;;;4935339;29;20288;-70
2021/05/13 15:04:09;;;;;;;1.00;0.90;;;17.80;99.90;;;;;;4935484;29;20564;-71
2021/05/13 15:06:35;;;;;;;0.97;0.70;;;17.60;99.90;;;;;;4935289;29;20232;-70
2021/05/13 15:09:02;;;;;;;1.27;0.77;;;17.80;99.90;;;;;;4935650;29;20220;-70
2021/05/13 15:11:28;;;;;;;1.00;0.80;;;17.90;99.90;;;;;;4935516;29;20304;-70
2021/05/13 15:13:55;;;;;;;1.27;1.13;;;17.90;99.90;;;;;;4935643;29;20209;-70
2021/05/13 15:16:21;;;;;;;1.17;1.03;;;17.80;99.90;;;;;;4935500;29;20232;-70
2021/05/13 15:18:48;;;;;;;1.03;0.83;;;17.90;99.90;;;;;;4936011;29;20212;-70
2021/05/13 15:21:14;;;;;;;1.40;0.97;;;17.90;99.90;;;;;;4935375;29;20255;-70
2021/05/13 15:23:40;;;;;;;0.90;0.70;;;18.00;99.90;;;;;;4935720;29;20560;-71
2021/05/13 15:26:06;;;;;;;1.27;0.80;;;18.00;99.90;;;;;;4935456;29;20213;-70
2021/05/13 15:28:33;;;;;;;1.27;0.87;;;18.10;99.90;;;;;;4935317;29;20236;-70
2021/05/13 15:31:00;;;;;;;1.03;0.70;;;18.40;99.90;;;;;;4935384;29;20209;-71
2021/05/13 15:33:26;;;;;;;1.10;0.70;;;18.40;99.90;;;;;;4935450;29;20213;-71
2021/05/13 15:35:52;;;;;;;1.37;0.73;;;18.50;99.90;;;;;;4935474;29;20295;-70
2021/05/13 15:38:18;;;;;;;1.00;0.70;;;18.50;99.90;;;;;;4935483;29;20247;-70
2021/05/13 15:40:45;;;;;;;0.40;0.40;;;18.80;99.90;;;;;;4935435;29;20260;-70
2021/05/13 15:43:12;;;;;;;0.60;0.40;;;19.10;99.90;;;;;;4935422;29;20209;-71
2021/05/13 15:45:39;;;;;;;0.40;0.23;;;19.00;99.20;;;;;;4935235;29;20213;-71
2021/05/13 15:48:09;;;;;;;0.70;0.40;;;18.90;98.90;;;;;;4935714;29;20228;-70
2021/05/13 15:50:36;;;;;;;1.07;0.30;;;19.00;97.50;;;;;;4939051;29;20215;-70
2021/05/13 15:53:03;;;;;;;0.43;0.30;;;19.00;98.30;;;;;;4939005;29;20205;-70
2021/05/13 15:55:29;;;;;;;1.57;0.50;;;19.00;97.50;;;;;;4938881;29;20239;-70
2021/05/13 15:57:55;;;;;;;0.30;0.20;;;19.10;97.30;;;;;;4938521;29;20240;-70
2021/05/13 16:00:22;;;;;;;1.17;0.40;;;19.10;96.10;;;;;;4938902;29;20216;-70
2021/05/13 16:02:49;;;;;;;1.50;0.47;;;19.00;95.60;;;;;;4938662;29;20304;-70
2021/05/13 16:05:16;;;;;;;2.23;0.40;;;19.20;97.00;;;;;;4938803;29;20209;-70
2021/05/13 16:07:42;;;;;;;1.70;0.50;;;19.30;96.10;;;;;;4938677;29;20700;-70
2021/05/13 16:10:10;;;;;;;0.90;0.40;;;19.20;97.00;;;;;;4938696;29;20264;-70
2021/05/13 16:12:42;;;;;;;0.80;0.50;;;19.10;96.30;;;;;;4938475;29;20213;-69
2021/05/13 16:15:09;;;;;;;0.80;0.53;;;19.20;96.30;;;;;;4938420;29;20245;-69
2021/05/13 16:17:36;;;;;;;1.63;0.30;;;18.90;96.90;;;;;;4938550;29;20237;-69
2021/05/13 16:20:02;;;;;;;0.40;0.30;;;18.80;97.00;;;;;;4938391;29;20217;-70
2021/05/13 16:22:29;;;;;;;0.60;0.40;;;18.80;95.40;;;;;;4938670;29;20220;-70
2021/05/13 16:24:56;;;;;;;0.50;0.40;;;18.80;96.00;;;;;;4938435;29;20350;-70
2021/05/13 16:27:22;;;;;;;0.47;0.30;;;18.80;96.10;;;;;;4938030;29;20257;-70
2021/05/13 16:29:48;;;;;;;2.23;0.70;;;18.60;95.20;;;;;;4938311;29;20737;-70
2021/05/13 16:32:14;;;;;;;1.90;0.40;;;18.50;94.40;;;;;;4938602;29;20276;-69
2021/05/13 16:34:40;;;;;;;2.83;0.40;;;18.40;96.00;;;;;;4938415;29;20217;-69
2021/05/13 16:37:07;;;;;;;0.80;0.50;;;18.30;95.80;;;;;;4938189;29;20397;-70
2021/05/13 16:39:34;;;;;;;1.90;0.60;;;18.30;96.80;;;;;;4938009;29;20217;-69
2021/05/13 16:42:00;;;;;;;0.50;0.50;;;18.20;97.40;;;;;;4937956;29;20209;-69
2021/05/13 16:44:26;;;;;;;0.93;0.40;;;18.30;95.90;;;;;;4938506;29;20212;-69
2021/05/13 16:46:52;;;;;;;1.43;0.40;;;18.30;96.30;;;;;;4938211;29;20228;-70
2021/05/13 16:49:19;;;;;;;0.93;0.37;;;18.20;96.00;;;;;;4938065;29;20259;-69
2021/05/13 16:51:45;;;;;;;2.83;0.40;;;18.30;96.80;;;;;;4938050;29;20209;-69
2021/05/13 16:54:11;;;;;;;0.50;0.43;;;18.40;97.60;;;;;;4937949;29;20215;-69
2021/05/13 16:56:38;;;;;;;0.80;0.30;;;18.60;98.80;;;;;;4937567;29;20696;-69
2021/05/13 16:59:04;;;;;;;1.17;0.67;;;18.50;95.50;;;;;;4937628;29;20209;-69
2021/05/13 17:01:31;;;;;;;0.87;0.50;;;18.40;96.00;;;;;;4937348;29;20216;-69
2021/05/13 17:04:01;;;;;;;1.00;0.50;;;18.40;95.80;;;;;;4937788;29;20232;-70
2021/05/13 17:06:27;;;;;;;0.87;0.47;;;18.30;94.60;;;;;;4937506;29;20213;-69
2021/05/13 17:08:56;;;;;;;1.30;0.60;;;18.20;95.00;;;;;;4937666;29;20271;-70
2021/05/13 17:11:22;;;;;;;1.40;0.60;;;17.90;95.40;;;;;;4937290;29;20267;-70
2021/05/13 17:13:50;;;;;;;0.90;0.60;;;17.90;96.50;;;;;;4937701;29;20235;-70
2021/05/13 17:16:16;;;;;;;0.70;0.57;;;17.80;96.90;;;;;;4937489;29;20332;-70
2021/05/13 17:18:43;;;;;;;1.83;0.60;;;17.70;96.10;;;;;;4937601;29;20276;-70
2021/05/13 17:21:09;;;;;;;0.67;0.60;;;17.40;96.10;;;;;;4937532;29;20212;-69
2021/05/13 17:23:35;;;;;;;1.07;0.60;;;17.20;96.40;;;;;;4937356;29;20581;-70
2021/05/13 17:26:02;;;;;;;0.97;0.60;;;17.00;97.70;;;;;;4938415;28;20204;-70
2021/05/13 17:28:28;;;;;;;0.87;0.50;;;16.90;97.50;;;;;;4943904;28;20231;-70
2021/05/13 17:30:56;;;;;;;1.10;0.67;;;16.80;97.60;;;;;;4937162;29;20215;-69
2021/05/13 17:33:22;;;;;;;0.50;0.50;;;16.70;98.20;;;;;;4936788;29;20264;-70
2021/05/13 17:35:50;;;;;;;1.50;0.60;;;16.70;99.00;;;;;;4936188;29;20237;-69
2021/05/13 17:38:18;;;;;;;0.83;0.60;;;16.80;99.30;;;;;;4936379;29;20280;-70
2021/05/13 17:40:44;;;;;;;0.67;0.50;;;16.70;99.40;;;;;;4943833;29;20211;-69
2021/05/13 17:43:10;;;;;;;0.70;0.50;;;16.80;99.20;;;;;;4944810;29;20603;-69
2021/05/13 17:45:37;;;;;;;1.00;0.70;;;16.80;99.60;;;;;;4954851;29;20215;-70
2021/05/13 17:48:05;;;;;;;0.70;0.50;;;16.90;98.80;;;;;;4955442;28;20228;-69
2021/05/13 17:50:31;;;;;;;1.07;0.70;;;16.60;98.20;;;;;;4955322;28;20212;-69
2021/05/13 17:52:58;;;;;;;1.23;0.80;;;16.50;97.40;;;;;;4955251;28;20204;-69
2021/05/13 17:55:24;;;;;;;1.63;0.50;;;16.40;98.40;;;;;;4954854;28;20234;-69
2021/05/13 17:57:50;;;;;;;0.77;0.40;;;16.30;97.70;;;;;;4955497;29;20232;-69
2021/05/13 18:00:20;;;;;;;1.40;0.90;;;16.30;98.00;;;;;;4952665;28;20653;-66
2021/05/13 18:02:48;;;;;;;3.73;1.13;;;16.10;98.10;;;;;;4953920;28;20302;-67
2021/05/13 18:05:18;;;;;;;1.60;1.17;;;16.00;98.40;;;;;;4953545;28;20219;-67
2021/05/13 18:07:44;;;;;;;1.80;0.90;;;16.00;99.30;;;;;;4954603;28;20228;-72
2021/05/13 18:10:12;;;;;;;1.43;0.70;;;16.00;98.70;;;;;;4953964;28;20208;-72
2021/05/13 18:12:38;;;;;;;3.87;1.27;;;16.00;99.10;;;;;;4952788;28;20279;-68
2021/05/13 18:15:06;;;;;;;3.00;1.00;;;15.90;99.30;;;;;;4954932;28;20683;-68
2021/05/13 18:17:33;;;;;;;0.90;0.60;;;15.90;99.40;;;;;;4955198;28;20232;-68
2021/05/13 18:20:01;;;;;;;1.80;0.87;;;16.00;99.40;;;;;;4955214;28;20212;-68
2021/05/13 18:22:31;;;;;;;2.43;1.43;;;16.20;99.40;;;;;;4955185;28;20212;-68
2021/05/13 18:24:57;;;;;;;1.13;0.70;;;16.20;99.60;;;;;;4955448;29;20212;-68
2021/05/13 18:27:24;;;;;;;0.80;0.53;;;16.30;99.50;;;;;;4955265;28;20239;-68
2021/05/13 18:29:56;;;;;;;1.33;0.63;;;16.30;99.70;;;;;;4951934;28;20209;-68
2021/05/13 18:32:22;;;;;;;0.80;0.57;;;16.10;99.90;;;;;;4943306;28;20209;-68
2021/05/13 18:34:48;;;;;;;1.30;0.73;;;16.20;99.90;;;;;;4938576;28;20209;-68
2021/05/13 18:37:15;;;;;;;1.23;0.83;;;16.10;99.90;;;;;;4940517;28;20283;-68
2021/05/13 18:39:42;;;;;;;1.67;1.10;;;15.90;99.90;;;;;;4944578;28;20259;-69
2021/05/13 18:42:09;;;;;;;2.27;0.83;;;15.80;99.90;;;;;;4940235;28;20296;-68
2021/05/13 18:44:35;;;;;;;1.47;0.80;;;15.80;99.90;;;;;;4940347;28;20200;-69
2021/05/13 18:47:01;;;;;;;3.03;1.20;;;15.80;99.90;;;;;;4939108;28;20234;-68
2021/05/13 18:49:29;;;;;;;2.10;0.90;;;15.70;99.90;;;;;;4937978;28;20217;-68
2021/05/13 18:51:55;;;;;;;1.13;0.83;;;15.60;99.90;;;;;;4941643;28;20213;-68
2021/05/13 18:54:22;;;;;;;1.83;0.80;;;15.60;99.90;;;;;;4941310;28;20549;-68
2021/05/13 18:56:51;;;;;;;1.37;0.80;;;15.50;99.90;;;;;;4937348;28;20250;-68
2021/05/13 18:59:18;;;;;;;2.33;0.83;;;15.50;99.90;;;;;;4937735;28;20212;-68
2021/05/13 19:01:45;;;;;;;1.27;0.90;;;15.50;99.90;;;;;;4935601;28;20209;-68
2021/05/13 19:04:12;;;;;;;1.60;0.90;;;15.40;99.90;;;;;;4936203;28;20215;-69
2021/05/13 19:06:39;;;;;;;1.87;1.10;;;15.40;99.90;;;;;;4943123;28;20233;-68
2021/05/13 19:09:06;;;;;;;1.37;0.90;;;15.30;99.90;;;;;;4938335;28;20219;-68
2021/05/13 19:11:32;;;;;;;1.23;0.80;;;15.20;99.90;;;;;;4943537;28;20228;-69
2021/05/13 19:13:59;;;;;;;1.90;0.93;;;15.10;99.90;;;;;;4941954;28;20213;-68
2021/05/13 19:16:25;;;;;;;2.80;0.80;;;15.00;99.90;;;;;;4938399;28;20247;-68
2021/05/13 19:18:51;;;;;;;3.07;1.10;;;15.00;99.90;;;;;;4943346;28;20220;-68
2021/05/13 19:21:18;;;;;;;1.50;1.03;;;14.80;99.90;;;;;;4944399;28;20208;-68
2021/05/13 19:23:44;;;;;;;1.53;1.00;;;14.70;99.90;;;;;;4939642;28;20205;-68
2021/05/13 19:26:12;;;;;;;2.17;1.30;;;14.60;99.90;;;;;;4946954;28;20207;-68
2021/05/13 19:28:42;;;;;;;3.43;1.50;;;14.40;99.90;;;;;;4940417;28;20232;-68
2021/05/13 19:31:25;;;;;;;2.57;1.57;;;14.30;99.90;;;;;;4945806;28;20636;-68
2021/05/13 19:36:36;;;;;;;3.50;1.70;;;14.30;99.90;;;;;;4940512;28;20243;-69
2021/05/13 19:39:06;;;;;;;2.47;1.30;;;14.10;99.90;;;;;;4943087;28;20223;-69
2021/05/13 19:41:33;;;;;;;3.10;1.70;;;13.90;99.90;;;;;;4948862;28;20298;-69
2021/05/13 19:44:00;;;;;;;2.70;1.50;;;13.80;99.90;;;;;;4944677;28;20719;-68
2021/05/13 19:46:27;;;;;;;2.40;1.30;;;13.60;99.90;;;;;;4943087;28;20263;-68
2021/05/13 19:48:54;;;;;;;3.00;1.27;;;13.50;99.90;;;;;;4947497;28;20208;-68
2021/05/13 19:51:21;;;;;;;3.83;1.70;;;13.50;99.90;;;;;;4942332;28;20213;-68
2021/05/13 19:53:47;;;;;;;6.73;2.00;;;13.30;99.90;;;;;;4945676;28;20212;-68
2021/05/13 19:56:20;;;;;;;4.50;2.30;;;13.20;99.90;;;;;;4943727;28;20680;-68
2021/05/13 19:58:46;;;;;;;3.57;2.20;;;13.20;99.90;;;;;;4944929;28;20212;-68
2021/05/13 20:01:12;;;;;;;5.83;2.60;;;13.10;99.90;;;;;;4939714;28;20220;-68
2021/05/13 20:03:48;;;;;;;4.77;2.30;;;12.90;99.90;;;;;;4942957;28;20270;-68
2021/05/13 20:06:17;;;;;;;3.90;2.03;;;12.80;99.90;;;;;;4945012;28;20208;-68
2021/05/13 20:08:57;;;;;;;5.57;2.20;;;12.70;99.90;;;;;;4940868;28;20208;-68